createdAt,value
2018-10-04T00:01:24.021Z,100988.98
2018-10-04T00:03:55.957Z,100995.05
2018-10-04T00:06:27.106Z,100999.49
2018-10-04T00:09:02.273Z,101003.06
2018-10-04T00:11:34.728Z,100998.58
2018-10-04T00:14:07.692Z,100995.70
2018-10-04T00:16:39.524Z,101000.95
2018-10-04T00:19:12.633Z,101000.63
2018-10-04T00:21:47.390Z,101003.66
2018-10-04T00:24:26.322Z,101002.19
2018-10-04T00:26:58.061Z,101007.97
2018-10-04T00:29:29.051Z,101002.39
2018-10-04T00:31:59.906Z,101005.25
2018-10-04T00:34:31.783Z,100999.89
2018-10-04T00:37:02.780Z,101003.23
2018-10-04T00:39:34.463Z,100988.75
2018-10-04T00:42:06.002Z,100994.32
2018-10-04T00:44:40.922Z,100985.65
2018-10-04T00:47:22.310Z,100991.92
2018-10-04T00:49:57.671Z,100985.16
2018-10-04T00:52:29.700Z,100995.48
2018-10-04T00:55:03.248Z,100997.28
2018-10-04T00:57:36.348Z,100997.07
2018-10-04T01:00:06.819Z,100996.56
2018-10-04T01:02:36.717Z,100988.38
2018-10-04T01:05:07.941Z,100991.23
2018-10-04T01:07:42.474Z,100987.71
2018-10-04T01:10:13.521Z,100991.65
2018-10-04T01:12:44.945Z,100986.18
2018-10-04T01:15:48.078Z,100990.19
2018-10-04T01:18:32.465Z,100982.16
2018-10-04T01:23:54.365Z,100992.61
2018-10-04T01:26:30.896Z,100990.59
2018-10-04T01:29:05.039Z,100985.56
2018-10-04T01:31:57.262Z,100988.33
2018-10-04T01:34:27.595Z,100982.92
2018-10-04T01:36:59.484Z,100983.13
2018-10-04T01:39:30.086Z,100983.27
2018-10-04T01:42:12.180Z,100980.91
2018-10-04T01:44:42.954Z,100983.34
2018-10-04T01:47:14.747Z,100984.88
2018-10-04T01:49:45.152Z,100974.86
2018-10-04T01:52:14.754Z,100980.19
2018-10-04T01:54:44.255Z,100975.97
2018-10-04T01:57:13.775Z,100968.63
2018-10-04T01:59:44.106Z,100978.09
2018-10-04T02:02:14.481Z,100984.24
2018-10-04T02:04:44.880Z,100992.16
2018-10-04T02:07:15.567Z,100982.06
2018-10-04T02:09:45.100Z,100984.29
2018-10-04T02:12:15.865Z,100975.21
2018-10-04T02:14:48.249Z,100975.81
2018-10-04T02:17:18.782Z,100977.97
2018-10-04T02:19:49.836Z,100986.98
2018-10-04T02:22:20.305Z,100986.05
2018-10-04T02:24:49.829Z,100979.12
2018-10-04T02:27:20.508Z,100991.01
2018-10-04T02:29:51.794Z,100982.63
2018-10-04T02:32:22.185Z,100994.23
2018-10-04T02:34:53.710Z,100989.37
2018-10-04T02:37:23.255Z,100946.93
2018-10-04T02:39:52.845Z,100995.30
2018-10-04T02:42:24.293Z,100993.48
2018-10-04T02:44:54.580Z,100997.09
2018-10-04T02:47:24.852Z,100985.75
2018-10-04T02:49:55.803Z,100990.13
2018-10-04T02:52:25.303Z,100982.99
2018-10-04T02:55:00.956Z,100988.63
2018-10-04T02:57:31.715Z,100979.05
2018-10-04T03:00:02.076Z,100975.14
2018-10-04T03:02:32.377Z,100978.40
2018-10-04T03:05:07.821Z,100979.80
2018-10-04T03:07:38.347Z,100977.69
2018-10-04T03:10:10.805Z,100974.00
2018-10-04T03:12:42.188Z,100982.67
2018-10-04T03:15:13.765Z,100986.48
2018-10-04T03:17:44.159Z,100984.27
2018-10-04T03:20:15.010Z,100988.08
2018-10-04T03:22:46.390Z,100981.11
2018-10-04T03:25:18.369Z,100986.61
2018-10-04T03:27:49.506Z,100989.87
2018-10-04T03:30:19.272Z,100984.78
2018-10-04T03:32:52.335Z,100985.40
2018-10-04T03:35:25.323Z,100983.47
2018-10-04T03:37:55.389Z,100982.38
2018-10-04T03:40:26.610Z,100978.19
2018-10-04T03:42:56.072Z,100986.14
2018-10-04T03:45:26.502Z,100989.47
2018-10-04T03:47:57.502Z,100986.25
2018-10-04T03:50:28.156Z,100980.70
2018-10-04T03:52:58.531Z,100985.01
2018-10-04T03:55:29.806Z,100978.82
2018-10-04T03:58:01.863Z,100975.72
2018-10-04T04:00:37.685Z,100979.08
2018-10-04T04:03:07.197Z,100983.73
2018-10-04T04:05:39.412Z,100986.51
2018-10-04T04:08:11.913Z,100985.21
2018-10-04T04:10:44.828Z,100981.72
2018-10-04T04:13:15.873Z,100979.70
2018-10-04T04:15:45.303Z,100989.25
2018-10-04T04:18:15.867Z,100990.45
2018-10-04T04:20:49.166Z,100985.41
2018-10-04T04:23:22.812Z,100986.97
2018-10-04T04:25:54.632Z,100977.80
2018-10-04T04:28:26.590Z,100987.64
2018-10-04T04:30:57.658Z,100985.81
2018-10-04T04:33:29.476Z,100984.50
2018-10-04T04:35:59.628Z,100981.99
2018-10-04T04:38:31.652Z,100986.84
2018-10-04T04:41:03.361Z,100982.39
2018-10-04T04:43:35.859Z,100982.59
2018-10-04T04:46:08.584Z,100973.50
2018-10-04T04:48:39.976Z,100982.75
2018-10-04T04:51:11.308Z,100982.75
2018-10-04T04:53:43.917Z,100984.94
2018-10-04T04:56:15.938Z,100981.70
2018-10-04T04:58:46.402Z,100981.05
2018-10-04T05:01:18.441Z,100977.27
2018-10-04T05:03:50.011Z,100983.83
2018-10-04T05:06:22.547Z,100980.37
2018-10-04T05:08:53.804Z,100985.78
2018-10-04T05:11:25.025Z,100988.26
2018-10-04T05:13:56.635Z,100967.56
2018-10-04T05:16:29.385Z,100993.48
2018-10-04T05:19:00.439Z,100992.06
2018-10-04T05:21:32.320Z,100990.09
2018-10-04T05:24:03.658Z,100991.22
2018-10-04T05:26:36.676Z,100987.05
2018-10-04T05:29:12.609Z,100993.20
2018-10-04T05:31:44.257Z,100990.32
2018-10-04T05:34:16.189Z,100991.81
2018-10-04T05:36:49.507Z,100987.23
2018-10-04T05:39:22.391Z,100990.19
2018-10-04T05:41:55.152Z,100986.27
2018-10-04T05:44:26.276Z,100955.95
2018-10-04T05:46:59.134Z,100985.34
2018-10-04T05:49:31.944Z,100992.95
2018-10-04T05:52:04.669Z,100988.34
2018-10-04T05:54:41.365Z,100991.91
2018-10-04T05:57:11.016Z,100992.38
2018-10-04T05:59:41.210Z,100993.66
2018-10-04T06:02:13.140Z,100993.13
2018-10-04T06:04:45.264Z,100994.75
2018-10-04T06:07:16.586Z,100996.53
2018-10-04T06:09:48.197Z,101000.78
2018-10-04T06:12:18.599Z,101002.42
2018-10-04T06:14:54.870Z,101006.09
2018-10-04T06:17:27.512Z,101006.92
2018-10-04T06:20:00.259Z,101007.43
2018-10-04T06:22:32.789Z,100997.13
2018-10-04T06:25:03.779Z,101015.80
2018-10-04T06:27:41.120Z,101019.11
2018-10-04T06:30:13.617Z,101013.92
2018-10-04T06:32:44.736Z,101013.59
2018-10-04T06:35:15.704Z,101011.47
2018-10-04T06:37:46.173Z,101018.65
2018-10-04T06:40:17.313Z,101018.18
2018-10-04T06:42:48.837Z,101014.16
2018-10-04T06:45:18.508Z,101021.08
2018-10-04T06:47:51.562Z,100997.23
2018-10-04T06:50:23.338Z,101017.91
2018-10-04T06:52:58.170Z,101024.95
2018-10-04T06:55:31.757Z,101033.81
2018-10-04T06:58:03.870Z,101040.39
2018-10-04T07:00:59.251Z,101037.63
2018-10-04T07:03:35.275Z,101041.28
2018-10-04T07:06:07.616Z,101040.41
2018-10-04T07:08:46.049Z,101045.17
2018-10-04T07:11:17.935Z,101042.62
2018-10-04T07:13:53.154Z,101037.63
2018-10-04T07:16:27.570Z,101040.23
2018-10-04T07:18:57.643Z,101046.08
2018-10-04T07:21:29.731Z,101045.09
2018-10-04T07:23:59.290Z,101050.11
2018-10-04T07:26:32.636Z,101046.10
2018-10-04T07:29:06.112Z,101043.24
2018-10-04T07:31:39.569Z,101051.30
2018-10-04T07:34:18.864Z,101054.17
2018-10-04T07:36:53.237Z,101055.34
2018-10-04T07:42:08.734Z,101055.30
2018-10-04T07:44:41.387Z,101051.39
2018-10-04T07:47:14.449Z,101026.27
2018-10-04T07:49:53.258Z,101061.55
2018-10-04T07:52:26.599Z,101061.88
2018-10-04T07:54:57.829Z,101048.62
2018-10-04T07:57:27.821Z,101066.60
2018-10-04T08:00:00.495Z,101059.67
2018-10-04T08:02:33.949Z,101072.19
2018-10-04T08:05:04.138Z,101045.62
2018-10-04T08:07:36.386Z,101070.41
2018-10-04T08:10:08.039Z,101073.44
2018-10-04T08:12:38.434Z,101073.34
2018-10-04T08:15:14.079Z,101079.23
2018-10-04T08:17:45.371Z,101079.95
2018-10-04T08:20:16.628Z,101074.69
2018-10-04T08:22:48.843Z,101077.62
2018-10-04T08:25:19.641Z,101066.67
2018-10-04T08:27:51.114Z,101079.15
2018-10-04T08:30:36.153Z,101073.53
2018-10-04T08:33:08.371Z,101075.22
2018-10-04T08:35:39.234Z,101073.55
2018-10-04T08:38:10.411Z,101079.66
2018-10-04T08:40:46.659Z,101083.03
2018-10-04T08:43:18.414Z,101086.62
2018-10-04T08:46:00.586Z,101094.78
2018-10-04T08:48:36.856Z,101083.28
2018-10-04T08:51:06.700Z,101081.79
2018-10-04T08:53:40.811Z,101081.55
2018-10-04T08:56:12.704Z,101082.22
2018-10-04T08:58:44.157Z,101076.30
2018-10-04T09:01:14.565Z,101074.44
2018-10-04T09:03:49.155Z,101077.70
2018-10-04T09:06:21.021Z,101068.45
2018-10-04T09:08:51.721Z,101063.73
2018-10-04T09:11:26.144Z,101065.28
2018-10-04T09:13:56.817Z,101063.31
2018-10-04T09:16:28.604Z,101025.73
2018-10-04T09:19:01.373Z,101063.66
2018-10-04T09:21:31.619Z,101065.30
2018-10-04T09:24:05.321Z,101062.48
2018-10-04T09:26:39.061Z,101060.13
2018-10-04T09:29:12.675Z,101064.83
2018-10-04T09:32:01.255Z,101063.37
2018-10-04T09:34:32.722Z,101044.44
2018-10-04T09:37:02.427Z,101051.75
2018-10-04T09:39:36.392Z,101051.41
2018-10-04T09:42:06.048Z,101056.24
2018-10-04T09:44:41.182Z,101054.63
2018-10-04T09:47:18.012Z,101045.09
2018-10-04T09:49:51.213Z,101046.93
2018-10-04T09:52:25.028Z,101045.96
2018-10-04T09:57:48.650Z,101036.27
2018-10-04T10:00:26.286Z,101034.97
2018-10-04T10:03:00.459Z,101039.74
2018-10-04T10:05:30.242Z,101031.13
2018-10-04T10:08:01.107Z,101029.74
2018-10-04T10:10:32.198Z,101021.38
2018-10-04T10:13:02.722Z,101024.47
2018-10-04T10:15:37.100Z,100920.92
2018-10-04T10:18:06.731Z,101018.48
2018-10-04T10:20:37.260Z,101022.16
2018-10-04T10:23:07.771Z,101021.62
2018-10-04T10:25:38.912Z,101023.58
2018-10-04T10:28:12.132Z,101021.28
2018-10-04T10:30:46.378Z,101026.15
2018-10-04T10:33:18.954Z,101020.66
2018-10-04T10:35:52.621Z,101022.89
2018-10-04T10:38:22.965Z,101021.89
2018-10-04T10:40:53.711Z,101000.11
2018-10-04T10:43:29.206Z,101007.09
2018-10-04T10:46:05.380Z,101012.97
2018-10-04T10:48:37.269Z,101018.91
2018-10-04T10:51:07.622Z,101015.24
2018-10-04T10:53:37.463Z,101016.36
2018-10-04T10:56:07.061Z,101017.27
2018-10-04T10:58:38.174Z,101016.04
2018-10-04T11:01:07.818Z,100999.42
2018-10-04T11:03:39.697Z,101010.36
2018-10-04T11:06:10.929Z,100916.47
2018-10-04T11:08:43.261Z,101011.34
2018-10-04T11:11:14.034Z,101001.49
2018-10-04T11:13:45.441Z,100999.36
2018-10-04T11:16:15.289Z,100995.63
2018-10-04T11:18:47.407Z,100995.83
2018-10-04T11:21:17.036Z,100987.31
2018-10-04T11:23:48.958Z,100986.97
2018-10-04T11:26:19.431Z,100984.70
2018-10-04T11:28:52.927Z,100979.80
2018-10-04T11:31:24.252Z,100974.92
2018-10-04T11:33:54.731Z,100973.62
2018-10-04T11:36:27.499Z,100970.44
2018-10-04T11:38:59.673Z,100973.08
2018-10-04T11:41:30.232Z,100958.66
2018-10-04T11:44:05.786Z,100959.02
2018-10-04T11:46:37.271Z,100946.31
2018-10-04T11:49:08.123Z,100947.85
2018-10-04T11:51:39.618Z,100943.14
2018-10-04T11:54:10.885Z,100946.89
2018-10-04T11:56:45.118Z,100934.18
2018-10-04T11:59:19.762Z,100927.36
2018-10-04T12:01:52.264Z,100935.88
2018-10-04T12:04:25.720Z,100933.25
2018-10-04T12:06:56.576Z,100924.83
2018-10-04T12:09:28.300Z,100919.97
2018-10-04T12:11:58.936Z,100923.09
2018-10-04T12:14:30.788Z,100921.64
2018-10-04T12:17:03.112Z,100914.42
2018-10-04T12:19:34.269Z,100915.35
2018-10-04T12:22:06.845Z,100919.21
2018-10-04T12:24:38.377Z,100910.10
2018-10-04T12:27:11.423Z,100903.20
2018-10-04T12:29:42.886Z,100899.11
2018-10-04T12:32:13.629Z,100901.67
2018-10-04T12:34:46.591Z,100896.41
2018-10-04T12:37:17.987Z,100901.73
2018-10-04T12:39:51.593Z,100900.18
2018-10-04T12:42:23.427Z,100895.16
2018-10-04T12:44:55.428Z,100890.80
2018-10-04T12:47:29.743Z,100886.67
2018-10-04T12:50:01.562Z,100890.77
2018-10-04T12:52:32.921Z,100884.00
2018-10-04T12:55:04.503Z,100876.78
2018-10-04T12:57:37.586Z,100877.78
2018-10-04T13:00:13.691Z,100872.09
2018-10-04T13:02:45.173Z,100870.67
2018-10-04T13:05:18.092Z,100856.83
2018-10-04T13:07:54.395Z,100870.20
2018-10-04T13:10:26.345Z,100865.77
2018-10-04T13:12:59.201Z,100859.03
2018-10-04T13:15:30.676Z,100859.48
2018-10-04T13:18:03.462Z,100857.61
2018-10-04T13:20:35.852Z,100850.81
2018-10-04T13:23:07.912Z,100857.27
2018-10-04T13:25:38.678Z,100852.64
2018-10-04T13:28:10.118Z,100854.27
2018-10-04T13:30:41.753Z,100849.20
2018-10-04T13:33:13.285Z,100847.06
2018-10-04T13:35:46.592Z,100846.30
2018-10-04T13:38:22.380Z,100845.16
2018-10-04T13:40:56.029Z,100844.67
2018-10-04T13:43:29.526Z,100835.20
2018-10-04T13:46:05.953Z,100837.81
2018-10-04T13:48:38.484Z,100823.23
2018-10-04T13:51:10.473Z,100830.69
2018-10-04T13:53:45.463Z,100827.94
2018-10-04T13:56:17.697Z,100829.99
2018-10-04T13:58:48.216Z,100823.47
2018-10-04T14:01:22.259Z,100822.55
2018-10-04T14:03:55.379Z,100820.58
2018-10-04T14:06:26.839Z,100825.16
2018-10-04T14:09:00.971Z,100817.08
2018-10-04T14:11:34.564Z,100809.16
2018-10-04T14:14:07.434Z,100803.91
2018-10-04T14:16:40.134Z,100808.14
2018-10-04T14:19:12.448Z,100806.16
2018-10-04T14:21:43.859Z,100810.80
2018-10-04T14:24:15.227Z,100796.52
2018-10-04T14:26:51.409Z,100790.36
2018-10-04T14:29:22.873Z,100770.96
2018-10-04T14:31:54.183Z,100784.66
2018-10-04T14:34:25.592Z,100776.75
2018-10-04T14:36:57.426Z,100789.25
2018-10-04T14:39:30.098Z,100774.55
2018-10-04T14:42:02.202Z,100778.09
2018-10-04T14:44:34.025Z,100771.65
2018-10-04T14:47:05.534Z,100771.42
2018-10-04T14:49:37.165Z,100766.17
2018-10-04T14:52:09.094Z,100769.55
2018-10-04T14:54:43.597Z,100762.95
2018-10-04T14:57:15.647Z,100762.80
2018-10-04T14:59:47.063Z,100758.45
2018-10-04T15:02:21.223Z,100761.27
2018-10-04T15:04:53.342Z,100760.05
2018-10-04T15:07:24.734Z,100762.63
2018-10-04T15:09:55.998Z,100766.05
2018-10-04T15:12:28.759Z,100764.27
2018-10-04T15:14:59.925Z,100757.05
2018-10-04T15:17:33.579Z,100759.48
2018-10-04T15:20:09.024Z,100749.09
2018-10-04T15:22:54.440Z,100742.13
2018-10-04T15:25:25.547Z,100746.66
2018-10-04T15:27:57.528Z,100745.30
2018-10-04T15:30:30.229Z,100736.61
2018-10-04T15:33:03.827Z,100723.84
2018-10-04T15:35:34.900Z,100733.13
2018-10-04T15:38:10.691Z,100728.94
2018-10-04T15:40:42.586Z,100713.02
2018-10-04T15:43:15.350Z,100633.34
2018-10-04T15:45:56.532Z,100722.97
2018-10-04T15:48:28.370Z,100728.64
2018-10-04T15:50:59.862Z,100729.44
2018-10-04T15:53:32.906Z,100729.80
2018-10-04T15:56:04.588Z,100723.86
2018-10-04T15:58:37.244Z,100719.34
2018-10-04T16:01:08.570Z,100719.99
2018-10-04T16:03:41.294Z,100717.81
2018-10-04T16:08:55.510Z,100715.73
2018-10-04T16:11:29.350Z,100715.39
2018-10-04T16:14:00.797Z,100710.98
2018-10-04T16:16:33.162Z,100710.83
2018-10-04T16:19:12.290Z,100709.98
2018-10-04T16:24:29.589Z,100719.59
2018-10-04T16:27:11.144Z,100705.42
2018-10-04T16:29:43.669Z,100672.81
2018-10-04T16:32:19.029Z,100704.77
2018-10-04T16:34:54.166Z,100703.80
2018-10-04T16:37:27.125Z,100700.78
2018-10-04T16:39:59.560Z,100701.67
2018-10-04T16:42:30.882Z,100702.11
2018-10-04T16:45:03.445Z,100700.22
2018-10-04T16:47:35.785Z,100696.38
2018-10-04T16:50:08.423Z,100689.11
2018-10-04T16:52:41.418Z,100694.77
2018-10-04T16:55:13.172Z,100697.38
2018-10-04T16:57:45.192Z,100703.98
2018-10-04T17:00:17.342Z,100703.54
2018-10-04T17:02:47.871Z,100703.50
2018-10-04T17:05:19.381Z,100696.58
2018-10-04T17:07:52.063Z,100693.64
2018-10-04T17:10:26.872Z,100696.80
2018-10-04T17:13:02.541Z,100686.89
2018-10-04T17:15:34.892Z,100694.20
2018-10-04T17:18:07.037Z,100699.88
2018-10-04T17:20:45.504Z,100600.97
2018-10-04T17:23:22.720Z,100696.84
2018-10-04T17:26:03.296Z,100693.19
2018-10-04T17:28:37.711Z,100692.56
2018-10-04T17:31:10.062Z,100691.55
2018-10-04T17:33:41.679Z,100692.48
2018-10-04T17:36:13.280Z,100695.91
2018-10-04T17:38:45.481Z,100687.97
2018-10-04T17:41:18.994Z,100705.66
2018-10-04T17:43:50.370Z,100696.59
2018-10-04T17:46:25.967Z,100690.23
2018-10-04T17:48:59.150Z,100695.89
2018-10-04T17:51:29.748Z,100692.95
2018-10-04T17:54:02.737Z,100691.56
2018-10-04T17:56:35.335Z,100692.88
2018-10-04T17:59:10.222Z,100698.95
2018-10-04T18:01:42.897Z,100690.87
2018-10-04T18:04:13.502Z,100694.39
2018-10-04T18:06:47.165Z,100696.88
2018-10-04T18:09:17.847Z,100698.73
2018-10-04T18:11:53.843Z,100691.83
2018-10-04T18:14:26.704Z,100688.94
2018-10-04T18:16:57.677Z,100693.23
2018-10-04T18:19:31.206Z,100695.43
2018-10-04T18:22:06.632Z,100689.41
2018-10-04T18:24:39.203Z,100688.45
2018-10-04T18:27:14.235Z,100685.59
2018-10-04T18:29:48.930Z,100684.30
2018-10-04T18:32:22.713Z,100684.72
2018-10-04T18:34:55.925Z,100681.52
2018-10-04T18:37:27.743Z,100678.61
2018-10-04T18:40:00.035Z,100626.05
2018-10-04T18:42:30.521Z,100678.42
2018-10-04T18:45:01.248Z,100680.80
2018-10-04T18:47:32.698Z,100682.08
2018-10-04T18:50:02.506Z,100680.28
2018-10-04T18:52:33.147Z,100684.87
2018-10-04T18:55:06.149Z,100687.29
2018-10-04T18:57:41.798Z,100684.80
2018-10-04T19:00:16.920Z,100677.87
2018-10-04T19:02:49.251Z,100690.72
2018-10-04T19:05:21.438Z,100689.22
2018-10-04T19:07:54.065Z,100691.41
2018-10-04T19:10:25.425Z,100695.46
2018-10-04T19:12:57.258Z,100698.66
2018-10-04T19:15:28.684Z,100690.50
2018-10-04T19:18:00.129Z,100700.22
2018-10-04T19:20:32.599Z,100700.86
2018-10-04T19:23:05.283Z,100705.45
2018-10-04T19:25:35.836Z,100705.41
2018-10-04T19:28:08.992Z,100706.12
2018-10-04T19:30:39.940Z,100708.87
2018-10-04T19:33:12.698Z,100713.09
2018-10-04T19:36:00.196Z,100706.72
2018-10-04T19:38:33.411Z,100708.41
2018-10-04T19:41:04.730Z,100710.22
2018-10-04T19:43:41.205Z,100713.17
2018-10-04T19:46:12.474Z,100699.17
2018-10-04T19:48:43.131Z,100707.39
2018-10-04T19:51:15.333Z,100697.45
2018-10-04T19:53:47.777Z,100697.58
2018-10-04T19:56:19.570Z,100696.56
2018-10-04T19:58:49.407Z,100648.77
2018-10-04T20:01:20.862Z,100702.21
2018-10-04T20:03:53.535Z,100696.91
2018-10-04T20:06:24.219Z,100695.89
2018-10-04T20:08:55.682Z,100690.17
2018-10-04T20:11:31.921Z,100676.83
2018-10-04T20:14:02.555Z,100624.03
2018-10-04T20:16:35.385Z,100706.59
2018-10-04T20:19:06.486Z,100709.30
2018-10-04T20:21:38.573Z,100710.97
2018-10-04T20:24:10.067Z,100701.80
2018-10-04T20:26:42.614Z,100707.98
2018-10-04T20:29:14.055Z,100707.73
2018-10-04T20:31:48.297Z,100707.98
2018-10-04T20:34:20.047Z,100709.02
2018-10-04T20:36:52.109Z,100696.32
2018-10-04T20:39:24.953Z,100700.48
2018-10-04T20:41:57.253Z,100691.06
2018-10-04T20:44:27.899Z,100694.39
2018-10-04T20:46:58.446Z,100690.34
2018-10-04T20:49:32.057Z,100676.95
2018-10-04T20:52:09.628Z,100679.19
2018-10-04T20:54:47.858Z,100684.06
2018-10-04T20:57:19.572Z,100657.54
2018-10-04T20:59:52.239Z,100680.02
2018-10-04T21:02:22.938Z,100665.78
2018-10-04T21:04:55.322Z,100680.66
2018-10-04T21:07:27.231Z,100676.27
2018-10-04T21:09:57.539Z,100686.95
2018-10-04T21:12:31.699Z,100679.25
2018-10-04T21:15:07.216Z,100676.16
2018-10-04T21:17:37.370Z,100680.84
2018-10-04T21:20:12.298Z,100674.83
2018-10-04T21:22:44.572Z,100678.45
2018-10-04T21:25:16.185Z,100674.22
2018-10-04T21:27:47.309Z,100676.17
2018-10-04T21:30:18.470Z,100674.48
2018-10-04T21:32:49.708Z,100673.16
2018-10-04T21:35:24.102Z,100669.89
2018-10-04T21:37:56.598Z,100678.48
2018-10-04T21:40:27.974Z,100670.41
2018-10-04T21:42:59.640Z,100672.70
2018-10-04T21:45:31.239Z,100669.47
2018-10-04T21:48:03.576Z,100671.63
2018-10-04T21:50:38.044Z,100665.70
2018-10-04T21:53:10.599Z,100658.97
2018-10-04T21:55:43.438Z,100667.45
2018-10-04T21:58:14.838Z,100666.31
2018-10-04T22:00:50.770Z,100664.02
2018-10-04T22:03:22.388Z,100659.69
2018-10-04T22:05:54.364Z,100664.08
2018-10-04T22:08:24.928Z,100661.28
2018-10-04T22:10:56.929Z,100663.15
2018-10-04T22:13:28.557Z,100663.81
2018-10-04T22:15:59.818Z,100666.64
2018-10-04T22:18:32.011Z,100624.97
2018-10-04T22:21:03.592Z,100666.53
2018-10-04T22:23:38.153Z,100665.77
2018-10-04T22:26:17.167Z,100665.33
2018-10-04T22:28:48.139Z,100665.33
2018-10-04T22:31:18.937Z,100665.02
2018-10-04T22:33:50.197Z,100666.72
2018-10-04T22:36:20.551Z,100641.48
2018-10-04T22:38:50.928Z,100661.72
2018-10-04T22:41:21.434Z,100664.64
2018-10-04T22:43:53.872Z,100659.13
2018-10-04T22:46:24.262Z,100660.37
2018-10-04T22:48:54.797Z,100653.05
2018-10-04T22:51:27.348Z,100648.50
2018-10-04T22:53:57.727Z,100652.52
2018-10-04T22:56:28.464Z,100650.84
2018-10-04T22:58:59.529Z,100643.47
2018-10-04T23:01:30.905Z,100649.87
2018-10-04T23:04:03.589Z,100631.39
2018-10-04T23:06:34.030Z,100643.16
2018-10-04T23:09:05.673Z,100641.79
2018-10-04T23:11:36.503Z,100644.16
2018-10-04T23:14:07.750Z,100632.28
2018-10-04T23:16:53.565Z,100642.85
2018-10-04T23:19:28.521Z,100638.30
2018-10-04T23:21:59.430Z,100642.17
2018-10-04T23:24:30.878Z,100634.09
2018-10-04T23:27:01.395Z,100633.09
2018-10-04T23:29:32.739Z,100634.92
2018-10-04T23:32:03.739Z,100593.53
2018-10-04T23:34:34.983Z,100639.29
2018-10-04T23:37:06.814Z,100640.45
2018-10-04T23:39:36.552Z,100641.97
2018-10-04T23:42:07.289Z,100643.47
2018-10-04T23:44:39.434Z,100649.68
2018-10-04T23:47:10.000Z,100649.87
2018-10-04T23:49:40.523Z,100649.17
2018-10-04T23:52:13.801Z,100648.30
2018-10-04T23:54:44.256Z,100645.61
2018-10-04T23:57:15.069Z,100643.13
2018-10-04T23:59:47.163Z,100642.77
